createdAt,value
2023-01-10T00:03:01.263Z,39.50
2023-01-10T00:09:04.927Z,41.50
2023-01-10T00:15:07.959Z,35.00
2023-01-10T00:21:10.733Z,45.25
2023-01-10T00:27:22.371Z,36.25
2023-01-10T00:33:24.492Z,34.75
2023-01-10T00:39:28.083Z,40.25
2023-01-10T00:45:30.985Z,39.75
2023-01-10T00:51:34.251Z,43.00
2023-01-10T00:57:38.028Z,32.00
2023-01-10T01:03:41.249Z,40.00
2023-01-10T01:10:02.598Z,33.50
2023-01-10T01:16:06.010Z,39.25
2023-01-10T01:22:08.156Z,32.25
2023-01-10T01:28:14.301Z,39.50
2023-01-10T01:34:16.675Z,36.75
2023-01-10T01:40:22.501Z,26.50
2023-01-10T01:46:24.625Z,34.25
2023-01-10T01:52:32.277Z,32.00
2023-01-10T01:58:45.261Z,29.75
2023-01-10T02:04:54.258Z,42.25
2023-01-10T02:11:09.856Z,37.75
2023-01-10T02:17:14.285Z,43.75
2023-01-10T02:23:53.981Z,39.50
2023-01-10T02:30:22.502Z,53.00
2023-01-10T02:36:37.104Z,58.00
2023-01-10T02:42:52.657Z,59.75
2023-01-10T02:48:56.331Z,54.50
2023-01-10T02:55:02.547Z,46.00
2023-01-10T03:01:29.769Z,47.25
2023-01-10T03:07:51.019Z,41.25
2023-01-10T03:14:01.221Z,41.00
2023-01-10T03:20:06.332Z,67.75
2023-01-10T03:26:10.403Z,74.67
2023-01-10T03:32:17.483Z,73.00
2023-01-10T03:38:39.972Z,54.75
2023-01-10T03:45:06.024Z,46.00
2023-01-10T03:51:09.794Z,41.25
2023-01-10T03:57:23.912Z,47.50
2023-01-10T04:03:26.059Z,50.25
2023-01-10T04:09:29.700Z,41.25
2023-01-10T04:15:32.958Z,42.25
2023-01-10T04:21:37.315Z,44.33
2023-01-10T04:27:40.595Z,44.25
2023-01-10T04:33:43.846Z,60.00
2023-01-10T04:39:46.126Z,58.50
2023-01-10T04:45:49.716Z,50.25
2023-01-10T04:52:03.184Z,38.00
2023-01-10T04:58:06.541Z,49.00
2023-01-10T05:04:12.948Z,49.50
